Hordafor III — LLVC — position and weather

sailwx.info

Track history (hours):
 
Tides and Currents Weather Stations Pressure Air Temp Water Temp Dewpoint Dewpoint Depression Visibility Wind Speed Wind Dir Waves Ship Positions

Hordafor III

Last reported at 2015-Jan-29 22:06 UTC. Time now 2015-Jan-31 22:38 UTC.
Position N 59°30' E 005°13'.

Length 50 m; draft 5.2 m.

Type: Ship. MMSI: 258044000.

Date/timePositionNaut miles runAvg speedWind from/ knotsBaromVisibWave heightAir tempDewpointWater temp
2015-Jan-29 22:06N 59°30' E 005°13'2610.1
2015-Jan-29 19:34N 59°06' E 005°31'1010.2
2015-Jan-29 18:34N 58°56' E 005°33'1010.0
2015-Jan-29 17:33N 58°47' E 005°26'18 9.0
2015-Jan-29 15:32N 58°30' E 005°42'3 0.5
2015-Jan-29 10:08N 58°30' E 005°47'4 7.4
2015-Jan-29 09:32N 58°26' E 005°49'9 9.2
2015-Jan-29 08:33N 58°20' E 006°01'10 9.9
2015-Jan-29 07:33N 58°13' E 006°16'10 9.6
2015-Jan-29 06:31N 58°07' E 006°30'4 0.1
2015-Jan-27 22:33N 58°09' E 006°23'1110.6
2015-Jan-27 21:33N 58°16' E 006°08'1111.4
2015-Jan-27 20:33N 58°24' E 005°53'1211.0
2015-Jan-27 19:31N 58°33' E 005°38'2110.6
2015-Jan-27 17:33N 58°52' E 005°22'1310.1
2015-Jan-27 16:15N 59°05' E 005°19'  
Track history (hours):
 
Tides and Currents Weather Stations Pressure Air Temp Water Temp Dewpoint Dewpoint Depression Visibility Wind Speed Wind Dir Waves Ship Positions

Hordafor III

Last reported at 2015-Jan-29 22:06 UTC. Time now 2015-Jan-31 22:38 UTC.
Position N 59°30' E 005°13'.

Length 50 m; draft 5.2 m.

Type: Ship. MMSI: 258044000.

Date/timePositionNaut miles runAvg speedWind from/ knotsBaromVisibWave heightAir tempDewpointWater temp
2015-Jan-29 22:06N 59°30' E 005°13'2610.1
2015-Jan-29 19:34N 59°06' E 005°31'1010.2
2015-Jan-29 18:34N 58°56' E 005°33'1010.0
2015-Jan-29 17:33N 58°47' E 005°26'18 9.0
2015-Jan-29 15:32N 58°30' E 005°42'3 0.5
2015-Jan-29 10:08N 58°30' E 005°47'4 7.4
2015-Jan-29 09:32N 58°26' E 005°49'9 9.2
2015-Jan-29 08:33N 58°20' E 006°01'10 9.9
2015-Jan-29 07:33N 58°13' E 006°16'10 9.6
2015-Jan-29 06:31N 58°07' E 006°30'4 0.1
2015-Jan-27 22:33N 58°09' E 006°23'1110.6
2015-Jan-27 21:33N 58°16' E 006°08'1111.4
2015-Jan-27 20:33N 58°24' E 005°53'1211.0
2015-Jan-27 19:31N 58°33' E 005°38'2110.6
2015-Jan-27 17:33N 58°52' E 005°22'1310.1
2015-Jan-27 16:15N 59°05' E 005°19'  

Dump ship's entire track history